Time;durP1;ratioP1;P1;durP2;ratioP2;P2;SDS_P1;SDS_P2;PMS_P1;PMS_P2;Temp;Humidity;BMP_temperature;BMP_pressure;BME280_temperature;BME280_humidity;BME280_pressure;Samples;Min_cycle;Max_cycle;Signal;HPM_P1;HPM_P2
2021/11/05 00:00:15;;;;;;;31.98;16.45;;;;;;;7.63;81.00;99709.25;5054708;28;20457;-68
2021/11/05 00:02:42;;;;;;;35.95;16.67;;;;;;;7.59;81.14;99700.13;5053390;28;20051;-67
2021/11/05 00:05:08;;;;;;;35.60;16.90;;;;;;;7.57;81.19;99689.81;5054059;28;20045;-68
2021/11/05 00:07:34;;;;;;;31.98;15.93;;;;;;;7.56;81.44;99701.38;5054482;28;20037;-69
2021/11/05 00:10:00;;;;;;;37.63;17.52;;;;;;;7.50;81.89;99700.41;5054604;28;20131;-68
2021/11/05 00:12:25;;;;;;;35.13;16.20;;;;;;;7.45;81.68;99694.13;5054674;28;20079;-68
2021/11/05 00:14:51;;;;;;;40.08;17.17;;;;;;;7.46;81.95;99695.72;5054479;28;20451;-68
2021/11/05 00:17:17;;;;;;;35.08;16.00;;;;;;;7.49;81.76;99698.75;5054319;28;20076;-69
2021/11/05 00:19:42;;;;;;;35.25;17.15;;;;;;;7.52;81.77;99702.81;5054438;28;20049;-68
2021/11/05 00:22:08;;;;;;;36.63;17.02;;;;;;;7.55;81.59;99699.75;5036350;28;20044;-68
2021/11/05 00:24:34;;;;;;;36.42;17.20;;;;;;;7.56;82.02;99690.00;5052705;28;20045;-68
2021/11/05 00:27:00;;;;;;;30.02;15.90;;;;;;;7.62;81.39;99683.91;5053176;28;20094;-68
2021/11/05 00:29:26;;;;;;;31.95;15.43;;;;;;;7.64;81.25;99687.13;5054256;28;20060;-68
2021/11/05 00:31:52;;;;;;;32.22;15.88;;;;;;;7.60;81.92;99699.13;5054175;28;20037;-67
2021/11/05 00:34:18;;;;;;;31.17;15.35;;;;;;;7.64;81.46;99695.03;5052547;28;20461;-67
2021/11/05 00:36:47;;;;;;;32.13;16.38;;;;;;;7.69;81.74;99688.13;5052673;28;20044;-68
2021/11/05 00:39:14;;;;;;;29.30;15.10;;;;;;;7.70;81.34;99681.00;5053901;28;20542;-68
2021/11/05 00:41:40;;;;;;;32.15;15.68;;;;;;;7.77;81.33;99691.53;5053837;28;20494;-68
2021/11/05 00:44:06;;;;;;;31.23;15.48;;;;;;;7.79;80.60;99700.03;5035649;28;20049;-68
2021/11/05 00:46:32;;;;;;;27.58;14.27;;;;;;;7.82;80.85;99695.13;5035557;28;20560;-68
2021/11/05 00:49:00;;;;;;;33.15;15.70;;;;;;;7.87;80.21;99692.69;5032446;28;20064;-68
2021/11/05 00:51:27;;;;;;;33.00;15.75;;;;;;;7.94;80.89;99687.34;5032745;28;20052;-69
2021/11/05 00:53:53;;;;;;;29.45;15.23;;;;;;;7.93;80.21;99683.09;5042602;28;20175;-68
2021/11/05 00:56:18;;;;;;;31.17;15.50;;;;;;;7.90;80.20;99670.34;5053731;28;20132;-67
2021/11/05 00:58:44;;;;;;;29.35;15.80;;;;;;;7.95;79.90;99675.78;5053302;28;20454;-68
2021/11/05 01:01:10;;;;;;;33.50;15.30;;;;;;;7.95;79.72;99681.88;5052454;28;20048;-69
2021/11/05 01:03:36;;;;;;;33.40;15.63;;;;;;;7.94;79.78;99675.00;5053283;28;20489;-68
2021/11/05 01:06:02;;;;;;;35.40;16.73;;;;;;;7.99;80.57;99670.91;5053289;28;20045;-67
2021/11/05 01:08:28;;;;;;;28.48;14.88;;;;;;;7.94;80.43;99668.88;5052235;28;20044;-68
2021/11/05 01:10:54;;;;;;;29.23;14.15;;;;;;;7.93;80.37;99667.28;5053342;28;20666;-68
2021/11/05 01:13:20;;;;;;;31.23;14.32;;;;;;;7.94;80.37;99658.31;5053338;28;20061;-68
2021/11/05 01:15:46;;;;;;;30.73;14.32;;;;;;;7.90;80.75;99650.03;5053152;28;20146;-68
2021/11/05 01:18:12;;;;;;;27.27;13.50;;;;;;;7.88;81.31;99636.25;5053466;28;20041;-68
2021/11/05 01:20:39;;;;;;;31.27;14.23;;;;;;;7.90;81.29;99628.91;5034935;28;20049;-68
2021/11/05 01:23:07;;;;;;;29.02;13.43;;;;;;;7.91;81.52;99595.41;5052071;28;20037;-68
2021/11/05 01:25:33;;;;;;;33.83;14.77;;;;;;;7.89;81.71;99594.84;5034850;28;20051;-69
2021/11/05 01:27:59;;;;;;;30.27;13.88;;;;;;;7.87;82.57;99602.94;5052795;28;20502;-68
2021/11/05 01:30:25;;;;;;;28.73;13.52;;;;;;;7.90;82.09;99605.16;5052895;28;20093;-68
2021/11/05 01:32:51;;;;;;;29.60;14.02;;;;;;;7.90;82.61;99607.78;5053198;28;20067;-68
2021/11/05 01:35:17;;;;;;;29.75;14.30;;;;;;;7.93;82.81;99614.47;5018505;28;20052;-68
2021/11/05 01:37:43;;;;;;;33.65;14.93;;;;;;;7.99;82.85;99632.09;5035412;28;20037;-70
2021/11/05 01:40:11;;;;;;;30.00;14.15;;;;;;;8.02;82.54;99620.31;5051272;28;20045;-68
2021/11/05 01:42:38;;;;;;;28.83;14.27;;;;;;;8.06;82.90;99606.47;5051551;28;20041;-68
2021/11/05 01:45:05;;;;;;;28.50;13.50;;;;;;;8.13;82.83;99603.78;5052854;28;20056;-68
2021/11/05 01:47:31;;;;;;;28.38;12.80;;;;;;;8.17;82.84;99597.03;5052609;28;20047;-67
2021/11/05 01:49:57;;;;;;;29.48;13.65;;;;;;;8.16;83.00;99603.34;5051378;28;20041;-68
2021/11/05 01:52:23;;;;;;;27.95;13.70;;;;;;;8.19;83.10;99608.19;5052798;28;20064;-69
2021/11/05 01:54:50;;;;;;;33.78;14.40;;;;;;;8.21;82.89;99603.50;5051210;28;20428;-68
2021/11/05 01:57:16;;;;;;;32.17;13.82;;;;;;;8.25;83.25;99596.75;5052715;28;20103;-68
2021/11/05 01:59:49;;;;;;;32.30;13.93;;;;;;;8.32;83.61;99592.22;5051834;28;20057;-68
2021/11/05 02:02:15;;;;;;;35.60;15.10;;;;;;;8.37;83.19;99588.94;5052612;28;20037;-67
2021/11/05 02:04:42;;;;;;;33.83;14.30;;;;;;;8.40;82.83;99591.16;5052442;28;20060;-68
2021/11/05 02:07:10;;;;;;;37.28;14.63;;;;;;;8.40;83.46;99585.88;5050987;28;20526;-69
2021/11/05 02:09:38;;;;;;;33.67;14.85;;;;;;;8.40;83.41;99588.53;5050859;28;20506;-68
2021/11/05 02:12:05;;;;;;;35.50;14.70;;;;;;;8.39;83.92;99584.28;5052423;28;20144;-68
2021/11/05 02:14:31;;;;;;;31.13;14.23;;;;;;;8.38;83.76;99575.56;5050839;28;20083;-68
2021/11/05 02:17:00;;;;;;;39.10;15.50;;;;;;;8.42;84.16;99573.28;5050774;28;20041;-68
2021/11/05 02:19:29;;;;;;;34.92;14.48;;;;;;;8.45;84.07;99572.84;5050831;28;20053;-68
2021/11/05 02:21:56;;;;;;;37.35;14.77;;;;;;;8.47;83.61;99581.38;5051922;28;20077;-68
2021/11/05 02:24:23;;;;;;;41.75;15.57;;;;;;;8.39;84.90;99590.38;5051973;28;20054;-68
2021/11/05 02:26:50;;;;;;;36.05;14.80;;;;;;;8.46;84.39;99592.94;5052184;28;20075;-67
2021/11/05 02:29:16;;;;;;;39.92;15.48;;;;;;;8.54;83.76;99587.38;5051871;28;20041;-67
2021/11/05 02:31:43;;;;;;;38.85;15.25;;;;;;;8.54;83.47;99568.88;5052118;28;20519;-68
2021/11/05 02:34:09;;;;;;;43.30;15.50;;;;;;;8.63;84.04;99580.78;5052025;28;20033;-68
2021/11/05 02:36:35;;;;;;;41.95;14.90;;;;;;;8.64;84.60;99578.94;5050837;28;20120;-68
2021/11/05 02:39:08;;;;;;;35.75;15.30;;;;;;;8.64;84.46;99577.09;5051618;28;20090;-67
2021/11/05 02:41:38;;;;;;;38.17;15.40;;;;;;;8.69;83.13;99567.72;5050481;28;20099;-69
2021/11/05 02:44:05;;;;;;;38.88;15.43;;;;;;;8.73;83.56;99555.66;5050423;28;20102;-67
2021/11/05 02:46:31;;;;;;;34.47;14.48;;;;;;;8.74;83.29;99565.22;5017210;28;20040;-68
2021/11/05 02:49:02;;;;;;;41.53;15.07;;;;;;;8.79;83.25;99568.00;5051684;28;20051;-67
2021/11/05 02:51:29;;;;;;;38.63;15.00;;;;;;;8.85;83.50;99552.06;5050519;28;20063;-68
2021/11/05 02:53:55;;;;;;;37.10;15.13;;;;;;;8.88;83.22;99548.16;5051594;28;20518;-67
2021/11/05 02:56:22;;;;;;;43.10;16.35;;;;;;;8.97;82.80;99548.66;5051627;28;20037;-66
2021/11/05 02:58:48;;;;;;;39.63;15.23;;;;;;;9.02;82.79;99552.25;5051384;28;20490;-67
2021/11/05 03:01:14;;;;;;;44.05;16.27;;;;;;;8.98;83.17;99539.72;5051320;28;20120;-67
2021/11/05 03:03:41;;;;;;;38.75;15.10;;;;;;;9.05;82.91;99540.44;5033318;28;20136;-67
2021/11/05 03:06:07;;;;;;;42.83;16.17;;;;;;;9.01;83.10;99542.72;5050301;28;20048;-68
2021/11/05 03:08:33;;;;;;;42.22;17.08;;;;;;;9.01;83.55;99536.63;5051450;28;20049;-67
2021/11/05 03:10:59;;;;;;;42.55;15.15;;;;;;;8.94;83.82;99538.53;5051105;28;20403;-68
2021/11/05 03:13:25;;;;;;;40.70;17.17;;;;;;;8.98;83.59;99532.59;5033199;28;20131;-67
2021/11/05 03:15:50;;;;;;;39.63;15.65;;;;;;;9.07;83.35;99533.09;5033445;28;20168;-68
2021/11/05 03:18:17;;;;;;;44.03;17.17;;;;;;;9.02;83.44;99531.09;5051181;28;20045;-69
2021/11/05 03:20:44;;;;;;;49.38;17.65;;;;;;;9.03;82.67;99524.81;5050941;28;20183;-67
2021/11/05 03:23:12;;;;;;;46.30;18.08;;;;;;;8.94;83.85;99512.91;5051357;28;20043;-68
2021/11/05 03:25:38;;;;;;;45.72;17.08;;;;;;;9.00;84.50;99511.19;5050770;28;20049;-68
2021/11/05 03:28:04;;;;;;;38.75;16.17;;;;;;;9.08;83.86;99518.81;5051325;28;20041;-68
2021/11/05 03:30:30;;;;;;;41.40;17.15;;;;;;;9.10;83.92;99522.84;5051111;28;20091;-68
2021/11/05 03:32:56;;;;;;;43.15;17.02;;;;;;;9.14;83.77;99509.19;5051285;28;20033;-68
2021/11/05 03:35:22;;;;;;;45.90;16.73;;;;;;;9.16;83.58;99501.84;5049502;28;20037;-68
2021/11/05 03:37:48;;;;;;;45.60;17.65;;;;;;;9.16;83.68;99493.91;5049998;28;20119;-69
2021/11/05 03:40:16;;;;;;;46.83;18.63;;;;;;;9.15;83.58;99500.22;5029619;28;20045;-68
2021/11/05 03:42:43;;;;;;;45.13;17.27;;;;;;;9.18;83.91;99499.78;5031073;28;20041;-68
2021/11/05 03:45:09;;;;;;;45.45;16.48;;;;;;;9.17;83.74;99488.38;5046083;28;20056;-68
2021/11/05 03:47:36;;;;;;;43.88;17.13;;;;;;;9.25;83.45;99487.25;5049952;28;20040;-68
2021/11/05 03:50:03;;;;;;;48.47;17.88;;;;;;;9.30;83.72;99482.91;5050882;28;20099;-68
2021/11/05 03:52:29;;;;;;;45.25;18.63;;;;;;;9.28;83.43;99481.53;5049791;28;20037;-68
2021/11/05 03:54:55;;;;;;;47.22;18.38;;;;;;;9.32;83.07;99480.84;5049629;28;20067;-67
2021/11/05 03:57:21;;;;;;;44.67;18.30;;;;;;;9.32;83.54;99486.16;5032954;28;20055;-68
2021/11/05 03:59:46;;;;;;;55.67;19.98;;;;;;;9.29;83.02;99476.03;5050528;28;20399;-68
2021/11/05 04:02:12;;;;;;;50.13;18.63;;;;;;;9.38;83.81;99467.72;5050721;28;20414;-69
2021/11/05 04:04:38;;;;;;;48.30;17.88;;;;;;;9.41;83.15;99469.91;5049292;28;20052;-68
2021/11/05 04:07:04;;;;;;;39.13;16.77;;;;;;;9.46;83.66;99475.34;5049545;28;20075;-68
2021/11/05 04:09:30;;;;;;;49.22;19.65;;;;;;;9.46;83.38;99470.84;5050766;28;20606;-69
2021/11/05 04:11:56;;;;;;;51.50;19.08;;;;;;;9.44;84.14;99461.53;5049436;28;20041;-69
2021/11/05 04:14:21;;;;;;;52.20;19.27;;;;;;;9.47;83.55;99459.25;5050371;28;20442;-68
2021/11/05 04:16:47;;;;;;;49.55;19.70;;;;;;;9.43;84.19;99449.34;5049461;28;20087;-69
2021/11/05 04:19:13;;;;;;;49.40;19.42;;;;;;;9.38;83.77;99439.44;5032675;28;20041;-67
2021/11/05 04:21:39;;;;;;;51.55;19.48;;;;;;;9.45;83.62;99431.41;5050474;28;20057;-67
2021/11/05 04:24:06;;;;;;;49.67;20.05;;;;;;;9.46;83.52;99441.75;5054311;28;20049;-68
2021/11/05 04:26:34;;;;;;;56.00;20.05;;;;;;;9.51;83.51;99433.94;5054456;28;20047;-69
2021/11/05 04:29:00;;;;;;;47.80;19.23;;;;;;;9.54;83.46;99432.69;5052673;28;20037;-68
2021/11/05 04:31:26;;;;;;;51.05;19.48;;;;;;;9.59;82.93;99430.16;5052661;28;20132;-68
2021/11/05 04:33:51;;;;;;;57.95;20.30;;;;;;;9.59;83.40;99430.16;5054170;28;20125;-68
2021/11/05 04:36:21;;;;;;;52.75;20.95;;;;;;;9.59;83.05;99424.03;5053939;28;20128;-68
2021/11/05 04:38:48;;;;;;;53.35;20.08;;;;;;;9.65;83.16;99423.16;5053959;28;20037;-68
2021/11/05 04:41:14;;;;;;;50.00;20.60;;;;;;;9.67;82.76;99423.69;5052524;28;20392;-68
2021/11/05 04:43:40;;;;;;;54.63;21.90;;;;;;;9.70;83.05;99424.03;5053847;28;20087;-67
2021/11/05 04:46:07;;;;;;;48.63;20.73;;;;;;;9.72;82.62;99419.31;5053881;28;20138;-67
2021/11/05 04:48:33;;;;;;;49.85;21.00;;;;;;;9.74;82.25;99427.06;5053852;28;20044;-68
2021/11/05 04:50:59;;;;;;;52.45;21.00;;;;;;;9.75;82.21;99433.94;5052703;28;20158;-68
2021/11/05 04:53:25;;;;;;;52.75;21.08;;;;;;;9.77;82.25;99435.34;5035594;28;20045;-68
2021/11/05 04:55:51;;;;;;;47.38;19.77;;;;;;;9.76;82.28;99440.84;5053713;28;20037;-68
2021/11/05 04:58:17;;;;;;;54.60;20.58;;;;;;;9.81;82.61;99437.50;5053749;28;20102;-67
2021/11/05 05:00:43;;;;;;;50.40;20.75;;;;;;;9.84;82.10;99429.91;5053574;28;20041;-67
2021/11/05 05:03:09;;;;;;;47.40;20.00;;;;;;;9.86;81.31;99429.69;5052153;28;20525;-68
2021/11/05 05:05:35;;;;;;;54.17;20.25;;;;;;;9.87;81.44;99437.38;5051982;28;20050;-68
2021/11/05 05:08:01;;;;;;;47.92;20.40;;;;;;;9.87;82.16;99433.94;5053522;28;20053;-68
2021/11/05 05:10:28;;;;;;;49.88;20.63;;;;;;;9.89;81.63;99427.38;5053118;28;20572;-68
2021/11/05 05:12:54;;;;;;;49.83;22.25;;;;;;;9.93;81.92;99425.06;5035433;28;20122;-67
2021/11/05 05:15:21;;;;;;;53.65;21.90;;;;;;;9.93;81.73;99431.16;5051070;28;20525;-68
2021/11/05 05:17:47;;;;;;;55.30;21.75;;;;;;;9.90;81.74;99417.59;5035207;28;20151;-68
2021/11/05 05:20:15;;;;;;;61.55;24.17;;;;;;;9.88;81.82;99414.38;5052448;28;20151;-68
2021/11/05 05:22:41;;;;;;;55.72;22.25;;;;;;;9.93;81.54;99412.63;5051875;28;20348;-69
2021/11/05 05:25:09;;;;;;;57.28;23.35;;;;;;;10.00;81.48;99405.38;5051650;28;20056;-67
2021/11/05 05:27:36;;;;;;;53.90;21.02;;;;;;;9.98;81.75;99393.41;5051968;28;20051;-67
2021/11/05 05:30:04;;;;;;;50.10;21.20;;;;;;;10.00;81.01;99391.34;5052573;28;20147;-69
2021/11/05 05:32:30;;;;;;;46.83;20.40;;;;;;;10.01;80.59;99379.69;5052295;28;20045;-68
2021/11/05 05:34:56;;;;;;;49.00;21.65;;;;;;;10.06;80.34;99387.75;5052579;28;20174;-69
2021/11/05 05:37:21;;;;;;;53.03;23.02;;;;;;;10.06;80.87;99386.94;5052784;28;20072;-68
2021/11/05 05:39:47;;;;;;;53.05;21.65;;;;;;;10.06;80.53;99382.47;5052991;28;20056;-69
2021/11/05 05:42:13;;;;;;;52.97;22.77;;;;;;;10.04;80.47;99389.03;5051498;28;20099;-69
2021/11/05 05:44:39;;;;;;;52.42;22.08;;;;;;;10.08;80.42;99387.50;5052799;28;20057;-70
2021/11/05 05:47:06;;;;;;;50.97;21.20;;;;;;;10.13;80.18;99391.06;5052864;28;20044;-70
2021/11/05 05:49:32;;;;;;;49.85;20.48;;;;;;;10.17;79.61;99394.84;5052774;28;20045;-70
2021/11/05 05:51:58;;;;;;;44.47;19.67;;;;;;;10.21;79.74;99400.50;5034718;28;20099;-70
2021/11/05 05:54:24;;;;;;;46.85;20.95;;;;;;;10.24;79.64;99397.38;5052575;28;20148;-69
2021/11/05 05:56:50;;;;;;;45.97;20.85;;;;;;;10.24;78.83;99397.38;5052461;28;20235;-69
2021/11/05 05:59:17;;;;;;;46.80;20.17;;;;;;;10.25;79.49;99385.75;5052366;28;20045;-70
2021/11/05 06:01:43;;;;;;;47.30;20.95;;;;;;;10.28;78.82;99385.31;5051447;28;20048;-69
2021/11/05 06:04:09;;;;;;;45.47;20.75;;;;;;;10.31;78.63;99382.19;5050677;28;20053;-70
2021/11/05 06:06:35;;;;;;;41.13;19.23;;;;;;;10.34;77.83;99380.91;5052235;28;20047;-69
2021/11/05 06:09:00;;;;;;;43.63;20.38;;;;;;;10.37;77.85;99377.78;5034233;28;20502;-70
2021/11/05 06:11:26;;;;;;;42.65;19.90;;;;;;;10.45;77.48;99367.63;5052246;28;20072;-69
2021/11/05 06:13:52;;;;;;;43.40;19.42;;;;;;;10.53;77.02;99385.00;5051908;28;20135;-70
2021/11/05 06:16:19;;;;;;;40.67;19.38;;;;;;;10.51;76.95;99375.66;5033995;28;20037;-70
2021/11/05 06:18:45;;;;;;;39.33;19.60;;;;;;;10.57;76.75;99361.47;5050820;28;20061;-69
2021/11/05 06:21:11;;;;;;;43.33;19.35;;;;;;;10.61;76.56;99370.53;5051826;28;20049;-70
2021/11/05 06:23:37;;;;;;;40.30;19.58;;;;;;;10.62;76.53;99380.91;5051607;28;20052;-69
2021/11/05 06:26:03;;;;;;;44.67;19.17;;;;;;;10.63;76.25;99379.88;5050630;28;20036;-70
2021/11/05 06:28:29;;;;;;;43.50;19.70;;;;;;;10.63;76.40;99366.63;5051620;28;20063;-70
2021/11/05 06:30:55;;;;;;;43.90;20.10;;;;;;;10.67;76.62;99365.09;5050519;28;20128;-71
2021/11/05 06:33:21;;;;;;;42.47;19.20;;;;;;;10.66;76.43;99362.69;5050103;28;20045;-71
2021/11/05 06:35:48;;;;;;;44.67;19.15;;;;;;;10.64;77.07;99362.91;5050676;28;20504;-70
2021/11/05 06:38:14;;;;;;;43.95;20.83;;;;;;;10.59;76.68;99369.97;5051542;28;20565;-69
2021/11/05 06:40:41;;;;;;;45.28;21.30;;;;;;;10.53;77.18;99373.56;5050324;28;20080;-70
2021/11/05 06:43:07;;;;;;;45.38;21.00;;;;;;;10.45;77.71;99391.47;5051635;28;20056;-69
2021/11/05 06:45:34;;;;;;;47.25;20.98;;;;;;;10.46;77.89;99371.88;5049500;28;20045;-69
2021/11/05 06:48:00;;;;;;;46.75;21.33;;;;;;;10.39;77.25;99365.91;5033616;28;20037;-69
2021/11/05 06:50:26;;;;;;;46.80;20.98;;;;;;;10.40;77.70;99366.72;5051249;28;20102;-70
2021/11/05 06:52:52;;;;;;;47.08;20.75;;;;;;;10.43;78.56;99358.28;5033563;28;20135;-70
2021/11/05 06:55:18;;;;;;;46.88;20.38;;;;;;;10.38;79.05;99358.19;5051507;28;20053;-70
2021/11/05 06:57:44;;;;;;;52.33;20.95;;;;;;;10.44;79.70;99357.25;5051671;28;20040;-69
2021/11/05 07:00:12;;;;;;;52.22;21.65;;;;;;;10.39;79.79;99349.22;5051494;28;20045;-72
2021/11/05 07:02:41;;;;;;;52.00;22.08;;;;;;;10.43;79.80;99355.63;5050150;28;20080;-70
2021/11/05 07:05:09;;;;;;;;;;;;;;;10.38;80.38;99363.47;5050893;28;20055;-69
2021/11/05 07:07:35;;;;;;;45.75;20.50;;;;;;;10.34;79.98;99354.41;5051108;28;19966;-70
2021/11/05 07:10:01;;;;;;;45.25;21.00;;;;;;;10.23;80.22;99359.50;5051131;28;20045;-70
2021/11/05 07:12:28;;;;;;;50.13;22.17;;;;;;;10.22;80.35;99355.22;5051429;28;20175;-70
2021/11/05 07:14:54;;;;;;;53.63;21.95;;;;;;;10.18;80.74;99330.25;5051300;28;20091;-69
2021/11/05 07:17:20;;;;;;;54.47;22.38;;;;;;;10.12;80.74;99333.06;5049878;28;20322;-71
2021/11/05 07:19:46;;;;;;;51.55;20.92;;;;;;;10.17;80.38;99320.69;5049758;28;20049;-70
2021/11/05 07:22:12;;;;;;;55.38;22.25;;;;;;;10.20;79.61;99316.75;5050917;28;20041;-70
2021/11/05 07:24:38;;;;;;;51.95;22.50;;;;;;;10.21;79.52;99316.53;5051151;28;20099;-70
2021/11/05 07:27:04;;;;;;;56.40;23.73;;;;;;;10.23;80.28;99301.22;5051026;28;20055;-71
2021/11/05 07:29:32;;;;;;;45.65;20.42;;;;;;;10.29;79.76;99304.78;5016673;28;20410;-68
2021/11/05 07:32:02;;;;;;;44.63;21.02;;;;;;;10.29;79.44;99303.97;5051247;28;20037;-70
2021/11/05 07:34:32;;;;;;;51.67;22.25;;;;;;;10.22;78.52;99302.25;5049776;28;20044;-70
2021/11/05 07:37:00;;;;;;;44.85;21.38;;;;;;;10.27;78.57;99300.78;5049806;28;20059;-71
2021/11/05 07:39:26;;;;;;;44.85;19.58;;;;;;;10.30;79.22;99324.16;5051148;28;20099;-70
2021/11/05 07:41:52;;;;;;;44.13;20.70;;;;;;;10.26;79.33;99328.25;5051245;28;20049;-70
2021/11/05 07:44:18;;;;;;;46.08;20.23;;;;;;;10.27;78.64;99321.97;5049612;28;20165;-70
2021/11/05 07:46:46;;;;;;;46.85;20.67;;;;;;;10.26;78.71;99307.06;5050804;28;20128;-70
2021/11/05 07:49:12;;;;;;;45.92;20.40;;;;;;;10.21;78.87;99300.66;5032969;28;20123;-70
2021/11/05 07:51:38;;;;;;;44.15;20.45;;;;;;;10.26;78.64;99296.47;5050840;28;20503;-70
2021/11/05 07:54:05;;;;;;;43.05;21.02;;;;;;;10.32;78.12;99293.69;5050382;28;20099;-70
2021/11/05 07:56:31;;;;;;;44.45;19.60;;;;;;;10.34;78.49;99294.28;5049921;28;20041;-69
2021/11/05 07:58:57;;;;;;;49.55;20.70;;;;;;;10.44;77.69;99285.69;5054589;28;20045;-71
2021/11/05 08:01:23;;;;;;;45.97;20.58;;;;;;;10.42;77.10;99287.78;5054577;28;20060;-70
2021/11/05 08:03:49;;;;;;;42.35;19.92;;;;;;;10.34;76.87;99282.88;5054396;28;20041;-71
2021/11/05 08:06:16;;;;;;;44.95;20.23;;;;;;;10.41;76.51;99283.53;5054736;28;20098;-70
2021/11/05 08:08:42;;;;;;;40.15;19.25;;;;;;;10.41;76.42;99286.16;5053010;28;20056;-70
2021/11/05 08:11:10;;;;;;;43.97;20.10;;;;;;;10.40;76.68;99279.28;5052915;28;20044;-70
2021/11/05 08:13:37;;;;;;;45.20;20.27;;;;;;;10.42;76.52;99270.03;5054146;28;20136;-69
2021/11/05 08:16:04;;;;;;;40.25;18.40;;;;;;;10.40;76.00;99264.16;5054468;28;20080;-70
2021/11/05 08:18:30;;;;;;;45.92;19.48;;;;;;;10.37;76.12;99269.16;5054172;28;20045;-70
2021/11/05 08:20:56;;;;;;;40.58;18.90;;;;;;;10.38;76.52;99265.44;5054128;28;20064;-71
2021/11/05 08:23:22;;;;;;;42.85;19.15;;;;;;;10.38;75.62;99274.22;5054069;28;20098;-70
2021/11/05 08:25:49;;;;;;;41.83;18.58;;;;;;;10.35;75.77;99266.75;5051951;28;20055;-70
2021/11/05 08:28:16;;;;;;;39.90;18.90;;;;;;;10.40;76.14;99258.06;5051960;28;20068;-70
2021/11/05 08:30:43;;;;;;;40.95;18.77;;;;;;;10.40;76.16;99252.78;5035522;28;20044;-71
2021/11/05 08:33:09;;;;;;;38.15;18.58;;;;;;;10.43;76.16;99266.34;5053675;28;20048;-70
2021/11/05 08:35:35;;;;;;;42.28;19.80;;;;;;;10.41;76.12;99268.44;5053667;28;20045;-71
2021/11/05 08:38:04;;;;;;;38.40;19.85;;;;;;;10.43;75.73;99255.75;5052821;28;20037;-69
2021/11/05 08:40:31;;;;;;;42.05;19.23;;;;;;;10.48;75.87;99262.19;5053647;28;20040;-70
2021/11/05 08:42:57;;;;;;;41.30;18.92;;;;;;;10.52;75.56;99253.50;5052293;28;20063;-69
2021/11/05 08:45:23;;;;;;;43.17;19.58;;;;;;;10.51;75.66;99253.75;5053165;28;20066;-70
2021/11/05 08:47:49;;;;;;;40.85;18.58;;;;;;;10.53;76.00;99260.44;5036168;28;20033;-70
2021/11/05 08:50:21;;;;;;;44.35;19.83;;;;;;;10.58;75.70;99257.84;5053762;28;20078;-70
2021/11/05 08:52:47;;;;;;;44.85;19.50;;;;;;;10.60;75.86;99241.72;5052350;28;20045;-70
2021/11/05 08:55:15;;;;;;;48.92;19.55;;;;;;;10.52;75.38;99248.19;5035677;28;20384;-70
2021/11/05 08:57:41;;;;;;;45.35;19.88;;;;;;;10.45;76.25;99240.41;5052406;28;20352;-68
2021/11/05 09:00:14;;;;;;;40.00;19.38;;;;;;;10.46;76.51;99243.88;5053677;28;20049;-69
2021/11/05 09:02:41;;;;;;;44.38;19.58;;;;;;;10.60;76.37;99236.41;5052124;28;20044;-69
2021/11/05 09:05:07;;;;;;;47.50;19.98;;;;;;;10.65;75.92;99223.25;5052104;28;20098;-67
2021/11/05 09:07:33;;;;;;;48.25;19.95;;;;;;;10.68;75.98;99220.09;5035386;28;20041;-69
2021/11/05 09:09:59;;;;;;;41.83;19.23;;;;;;;10.67;76.63;99229.88;5051869;28;20513;-69
2021/11/05 09:12:25;;;;;;;42.10;19.25;;;;;;;10.64;75.57;99219.75;5053231;28;20141;-70
2021/11/05 09:14:51;;;;;;;39.50;19.05;;;;;;;10.67;75.87;99213.97;5052070;28;20130;-69
2021/11/05 09:17:18;;;;;;;42.30;19.55;;;;;;;10.65;75.77;99215.28;5051790;28;20072;-70
2021/11/05 09:19:44;;;;;;;45.70;19.30;;;;;;;10.67;76.17;99189.31;5053284;28;20202;-70
2021/11/05 09:22:10;;;;;;;38.50;18.45;;;;;;;10.74;75.48;99207.75;5035248;28;20053;-69
2021/11/05 09:24:35;;;;;;;40.30;19.63;;;;;;;10.68;75.87;99207.66;5052484;28;20048;-70
2021/11/05 09:27:02;;;;;;;43.30;18.70;;;;;;;10.72;76.06;99213.28;5053176;28;20041;-70
2021/11/05 09:29:28;;;;;;;39.03;18.65;;;;;;;10.66;75.91;99212.38;5051528;28;20190;-69
2021/11/05 09:31:55;;;;;;;42.42;19.50;;;;;;;10.67;75.83;99213.19;5051496;28;20112;-71
2021/11/05 09:34:21;;;;;;;42.95;19.00;;;;;;;10.64;76.19;99197.75;5051192;28;20045;-70
2021/11/05 09:36:47;;;;;;;41.83;19.95;;;;;;;10.57;76.47;99202.44;5052906;28;20102;-69
2021/11/05 09:39:13;;;;;;;46.75;20.08;;;;;;;10.53;76.68;99188.03;5051375;28;20114;-70
2021/11/05 09:41:39;;;;;;;43.58;20.35;;;;;;;10.57;76.46;99191.84;5034664;28;20131;-70
2021/11/05 09:44:08;;;;;;;41.70;19.77;;;;;;;10.59;76.13;99187.06;5034789;28;20136;-71
2021/11/05 09:46:37;;;;;;;42.83;19.45;;;;;;;10.66;76.21;99177.13;5052866;28;20120;-73
2021/11/05 09:49:04;;;;;;;39.40;18.33;;;;;;;10.64;75.90;99187.16;5051024;28;20040;-71
2021/11/05 09:51:30;;;;;;;39.58;18.75;;;;;;;10.69;75.96;99180.09;5052362;28;20037;-70
2021/11/05 09:54:01;;;;;;;41.65;19.02;;;;;;;10.67;75.54;99186.66;5050703;28;20044;-70
2021/11/05 09:56:27;;;;;;;36.95;17.55;;;;;;;10.75;75.31;99172.22;5052409;28;20065;-69
2021/11/05 09:58:55;;;;;;;40.17;19.20;;;;;;;10.75;75.48;99164.25;5050996;28;20045;-71
2021/11/05 10:01:21;;;;;;;35.75;18.75;;;;;;;10.80;74.91;99172.28;5052599;28;20120;-71
2021/11/05 10:03:47;;;;;;;41.97;19.10;;;;;;;10.78;74.92;99153.16;5051017;28;20148;-70
2021/11/05 10:06:13;;;;;;;34.92;17.23;;;;;;;10.77;74.95;99159.53;5050949;28;20048;-70
2021/11/05 10:08:39;;;;;;;36.22;17.58;;;;;;;10.78;74.50;99156.63;5052100;28;20045;-71
2021/11/05 10:11:27;;;;;;;38.00;17.27;;;;;;;10.70;75.56;99146.41;5034158;28;20071;-70
2021/11/05 10:13:54;;;;;;;35.80;17.20;;;;;;;10.66;75.51;99148.75;5033598;28;20057;-69
2021/11/05 10:16:21;;;;;;;40.38;17.92;;;;;;;10.74;75.37;99138.81;5052051;28;20095;-70
2021/11/05 10:18:55;;;;;;;38.75;17.08;;;;;;;10.77;75.21;99141.75;5050042;28;20106;-70
2021/11/05 10:21:22;;;;;;;35.25;16.05;;;;;;;10.72;75.49;99138.25;5050501;28;20541;-71
2021/11/05 10:23:48;;;;;;;32.88;18.00;;;;;;;10.68;75.44;99125.47;5049880;28;20048;-70
2021/11/05 10:26:22;;;;;;;38.40;17.33;;;;;;;10.67;75.60;99129.16;5052072;28;20029;-71
2021/11/05 10:28:49;;;;;;;37.60;18.45;;;;;;;10.71;76.03;99132.13;5050399;28;20044;-69
2021/11/05 10:31:18;;;;;;;30.85;16.30;;;;;;;10.75;76.02;99127.16;5050639;28;20514;-71
2021/11/05 10:33:47;;;;;;;32.60;17.20;;;;;;;10.77;75.97;99119.75;5050437;28;20044;-69
2021/11/05 10:36:17;;;;;;;34.17;16.50;;;;;;;10.79;76.27;99121.09;5050489;28;20076;-70
2021/11/05 10:38:57;;;;;;;36.13;16.27;;;;;;;10.76;76.10;99121.59;5017892;28;20043;-70
2021/11/05 10:41:26;;;;;;;37.05;17.73;;;;;;;10.75;76.79;99108.59;5034176;28;20041;-70
2021/11/05 10:43:57;;;;;;;36.75;17.55;;;;;;;10.71;76.47;99120.72;5050007;28;20154;-70
2021/11/05 10:46:32;;;;;;;37.70;18.42;;;;;;;10.68;77.35;99120.16;5050183;28;20120;-70
2021/11/05 10:49:06;;;;;;;38.70;17.40;;;;;;;10.60;77.21;99111.84;5051529;28;20452;-70
2021/11/05 10:51:33;;;;;;;40.38;18.98;;;;;;;10.60;77.98;99109.19;5050582;28;20048;-70
2021/11/05 10:54:00;;;;;;;40.40;18.23;;;;;;;10.52;78.61;99105.09;5051188;28;20056;-69
2021/11/05 10:56:29;;;;;;;40.05;18.85;;;;;;;10.37;79.38;99118.91;5050126;28;20395;-70
2021/11/05 10:59:04;;;;;;;38.83;19.05;;;;;;;10.34;78.74;99108.81;5049897;28;20072;-70
2021/11/05 11:01:34;;;;;;;46.15;20.13;;;;;;;10.43;79.30;99123.25;5051277;28;20482;-70
2021/11/05 11:04:01;;;;;;;;;;;;;;;10.44;79.90;99121.41;5050251;28;20057;-69
2021/11/05 11:06:34;;;;;;;45.65;19.30;;;;;;;10.45;79.50;99115.06;5051436;28;20013;-69
2021/11/05 11:09:04;;;;;;;38.17;18.08;;;;;;;10.48;79.32;99117.22;5049876;28;20114;-70
2021/11/05 11:11:38;;;;;;;44.80;20.05;;;;;;;10.52;79.69;99109.59;5051545;28;20052;-69
2021/11/05 11:14:09;;;;;;;47.10;20.85;;;;;;;10.48;79.88;99106.63;5051171;28;20044;-69
2021/11/05 11:16:41;;;;;;;48.10;20.30;;;;;;;10.49;79.43;99108.22;5051349;28;20041;-69
2021/11/05 11:19:14;;;;;;;43.28;20.10;;;;;;;10.51;79.81;99108.00;5050821;28;20067;-69